LiveATC.Net - Listen to live air traffic control over the Internet!


ICAO: WAHH  IATA: JOG   Airport: Adisutjipto International Airport
City: Yogyakarta
Country: Indonesia   Continent: Asia
WARS METAR Weather: WARS 041130Z 16005KT 6000 TS FEW016CB BKN015 27/23 Q1009 NOSIG
WAHH Flight Activity (FlightAware)

WAHH Approach
Feed Status: DOWN
Last heard on: 2019-01-09 17:03:03 (187 days 2 hours 2 minutes ago)
WAHH Approach Audio Archives
FacilityFrequency
Adisutjipto Approach123.400

NOTICE

Unauthorized use prohibited. See LiveATC.net Terms of Service


Find LiveATC Audio Streams


Airport/ARTCC Code

Frequency Search
(e.g., 124.400, 128.75)
Site-wide search
 


Browse LiveATC Feeds
Top 50 LiveATC Feeds
LiveATC Feed Map
Bad Weather Areas

LiveATC FAQ
Offer LiveATC feed
Contact LiveATC.net
Press Inquiries

LiveATC on iPhone
LiveATC on Android

Windows Phone
Windows 8/10

LiveATC Mobile
(Mobile browser)

ATC Audio Archives
Interesting Recordings

LiveATC Forums


Home Page
About LiveATC.net
Make a Donation
Terms of Use
Privacy Policy

Canadian Air Freqs

AIRMETs/SIGMETs

FAA Airport Status
Nat'l Airspace Status
Arrival Demand Charts


Server Software By:
Icecast.org
Liquidsoap